sensor_id;sensor_type;location;lat;lon;timestamp;temperature;humidity
49236;DHT22;35067;48.134;8.378;2024-03-23T00:51:50;9.40;97.30
49236;DHT22;35067;48.134;8.378;2024-03-23T00:53:54;9.50;97.20
49236;DHT22;35067;48.134;8.378;2024-03-23T00:54:54;9.40;97.30
49236;DHT22;35067;48.134;8.378;2024-03-23T00:55:55;9.40;97.30
49236;DHT22;35067;48.134;8.378;2024-03-23T00:56:56;9.50;97.00
49236;DHT22;35067;48.134;8.378;2024-03-23T00:57:57;9.50;96.70
49236;DHT22;35067;48.134;8.378;2024-03-23T00:58:57;9.50;96.60
49236;DHT22;35067;48.134;8.378;2024-03-23T00:59:58;9.50;96.60
49236;DHT22;35067;48.134;8.378;2024-03-23T01:00:59;9.40;96.60
49236;DHT22;35067;48.134;8.378;2024-03-23T01:01:59;9.40;96.80
49236;DHT22;35067;48.134;8.378;2024-03-23T01:03:00;9.40;97.10
49236;DHT22;35067;48.134;8.378;2024-03-23T01:04:01;9.30;97.10
49236;DHT22;35067;48.134;8.378;2024-03-23T01:05:03;9.30;97.50
49236;DHT22;35067;48.134;8.378;2024-03-23T01:06:04;9.30;97.60
49236;DHT22;35067;48.134;8.378;2024-03-23T01:07:04;9.40;97.90
49236;DHT22;35067;48.134;8.378;2024-03-23T01:08:05;9.40;97.90
49236;DHT22;35067;48.134;8.378;2024-03-23T01:09:06;9.50;97.80
49236;DHT22;35067;48.134;8.378;2024-03-23T01:10:09;9.50;97.90
49236;DHT22;35067;48.134;8.378;2024-03-23T01:11:10;9.60;98.00
49236;DHT22;35067;48.134;8.378;2024-03-23T01:12:10;9.50;98.00
49236;DHT22;35067;48.134;8.378;2024-03-23T01:13:11;9.50;98.00
49236;DHT22;35067;48.134;8.378;2024-03-23T01:14:12;9.70;98.00
49236;DHT22;35067;48.134;8.378;2024-03-23T01:15:12;9.80;98.00
49236;DHT22;35067;48.134;8.378;2024-03-23T01:16:13;9.90;97.90
49236;DHT22;35067;48.134;8.378;2024-03-23T01:17:14;10.00;97.50
49236;DHT22;35067;48.134;8.378;2024-03-23T01:18:15;10.10;97.30
49236;DHT22;35067;48.134;8.378;2024-03-23T01:19:15;10.10;96.90
49236;DHT22;35067;48.134;8.378;2024-03-23T01:20:16;10.20;96.60
49236;DHT22;35067;48.134;8.378;2024-03-23T01:21:17;10.30;95.90
49236;DHT22;35067;48.134;8.378;2024-03-23T01:22:17;10.40;95.70
49236;DHT22;35067;48.134;8.378;2024-03-23T01:23:18;10.40;95.60
49236;DHT22;35067;48.134;8.378;2024-03-23T01:24:19;10.50;95.80
49236;DHT22;35067;48.134;8.378;2024-03-23T01:25:19;10.50;95.80
49236;DHT22;35067;48.134;8.378;2024-03-23T01:26:20;10.50;95.80
49236;DHT22;35067;48.134;8.378;2024-03-23T01:27:20;10.60;95.50
49236;DHT22;35067;48.134;8.378;2024-03-23T01:28:21;10.50;95.40
49236;DHT22;35067;48.134;8.378;2024-03-23T01:29:22;10.60;95.30
49236;DHT22;35067;48.134;8.378;2024-03-23T01:30:23;10.60;95.50
49236;DHT22;35067;48.134;8.378;2024-03-23T01:31:24;10.70;95.10
49236;DHT22;35067;48.134;8.378;2024-03-23T01:32:24;10.80;95.40
49236;DHT22;35067;48.134;8.378;2024-03-23T01:33:25;10.80;95.40
49236;DHT22;35067;48.134;8.378;2024-03-23T01:34:26;10.80;95.20
49236;DHT22;35067;48.134;8.378;2024-03-23T01:35:28;10.90;95.00
49236;DHT22;35067;48.134;8.378;2024-03-23T01:36:29;11.00;94.80
49236;DHT22;35067;48.134;8.378;2024-03-23T01:37:29;11.00;94.70
49236;DHT22;35067;48.134;8.378;2024-03-23T01:38:30;11.10;94.60
49236;DHT22;35067;48.134;8.378;2024-03-23T01:39:31;11.20;94.20
49236;DHT22;35067;48.134;8.378;2024-03-23T01:40:31;11.30;94.00
49236;DHT22;35067;48.134;8.378;2024-03-23T01:41:32;11.20;94.30
49236;DHT22;35067;48.134;8.378;2024-03-23T01:42:33;11.30;94.30
49236;DHT22;35067;48.134;8.378;2024-03-23T01:43:34;11.20;94.30
49236;DHT22;35067;48.134;8.378;2024-03-23T01:44:34;11.30;94.30
49236;DHT22;35067;48.134;8.378;2024-03-23T01:45:35;11.30;94.30
49236;DHT22;35067;48.134;8.378;2024-03-23T01:46:39;11.30;94.40
49236;DHT22;35067;48.134;8.378;2024-03-23T01:47:41;11.40;94.20
49236;DHT22;35067;48.134;8.378;2024-03-23T01:48:42;11.40;94.20
49236;DHT22;35067;48.134;8.378;2024-03-23T01:49:43;11.40;94.30
49236;DHT22;35067;48.134;8.378;2024-03-23T01:50:44;11.50;94.10
49236;DHT22;35067;48.134;8.378;2024-03-23T01:51:44;11.60;93.90
49236;DHT22;35067;48.134;8.378;2024-03-23T01:52:46;11.70;93.90
49236;DHT22;35067;48.134;8.378;2024-03-23T01:53:47;11.70;93.70
49236;DHT22;35067;48.134;8.378;2024-03-23T01:54:48;11.70;93.50
49236;DHT22;35067;48.134;8.378;2024-03-23T01:55:50;11.80;93.60
49236;DHT22;35067;48.134;8.378;2024-03-23T01:56:52;11.80;93.50
49236;DHT22;35067;48.134;8.378;2024-03-23T01:57:53;11.80;93.50
49236;DHT22;35067;48.134;8.378;2024-03-23T01:58:56;11.90;93.30
49236;DHT22;35067;48.134;8.378;2024-03-23T01:59:57;11.90;93.10
49236;DHT22;35067;48.134;8.378;2024-03-23T02:00:58;12.00;93.10
49236;DHT22;35067;48.134;8.378;2024-03-23T02:01:59;12.00;92.80
49236;DHT22;35067;48.134;8.378;2024-03-23T02:02:59;12.00;92.50
49236;DHT22;35067;48.134;8.378;2024-03-23T02:04:00;12.10;92.50
49236;DHT22;35067;48.134;8.378;2024-03-23T02:05:01;12.10;92.00
49236;DHT22;35067;48.134;8.378;2024-03-23T02:06:02;12.10;92.20
49236;DHT22;35067;48.134;8.378;2024-03-23T02:07:03;12.10;92.10
49236;DHT22;35067;48.134;8.378;2024-03-23T02:08:06;12.20;92.20
49236;DHT22;35067;48.134;8.378;2024-03-23T02:09:06;12.20;92.00
49236;DHT22;35067;48.134;8.378;2024-03-23T02:10:08;12.10;91.80
49236;DHT22;35067;48.134;8.378;2024-03-23T02:11:10;12.10;91.80
49236;DHT22;35067;48.134;8.378;2024-03-23T02:12:10;12.10;92.00
49236;DHT22;35067;48.134;8.378;2024-03-23T02:13:11;12.10;92.20
49236;DHT22;35067;48.134;8.378;2024-03-23T02:14:12;12.10;92.40
49236;DHT22;35067;48.134;8.378;2024-03-23T02:15:13;12.10;92.20
49236;DHT22;35067;48.134;8.378;2024-03-23T02:16:14;12.10;92.20
49236;DHT22;35067;48.134;8.378;2024-03-23T02:17:15;12.20;92.00
49236;DHT22;35067;48.134;8.378;2024-03-23T02:18:16;12.20;91.90
49236;DHT22;35067;48.134;8.378;2024-03-23T02:19:16;12.10;92.00
49236;DHT22;35067;48.134;8.378;2024-03-23T02:20:17;12.20;91.90
49236;DHT22;35067;48.134;8.378;2024-03-23T02:21:18;12.20;91.80
49236;DHT22;35067;48.134;8.378;2024-03-23T02:22:18;12.20;91.90
49236;DHT22;35067;48.134;8.378;2024-03-23T02:23:19;12.20;91.90
49236;DHT22;35067;48.134;8.378;2024-03-23T02:24:20;12.20;92.00
49236;DHT22;35067;48.134;8.378;2024-03-23T02:25:21;12.30;92.00
49236;DHT22;35067;48.134;8.378;2024-03-23T02:26:21;12.30;91.90
49236;DHT22;35067;48.134;8.378;2024-03-23T02:27:22;12.30;91.70
49236;DHT22;35067;48.134;8.378;2024-03-23T02:28:24;12.30;91.80
49236;DHT22;35067;48.134;8.378;2024-03-23T02:29:25;12.30;91.90
49236;DHT22;35067;48.134;8.378;2024-03-23T02:30:26;12.30;92.10
49236;DHT22;35067;48.134;8.378;2024-03-23T02:31:27;12.30;92.20
49236;DHT22;35067;48.134;8.378;2024-03-23T02:32:27;12.30;92.00
49236;DHT22;35067;48.134;8.378;2024-03-23T02:33:28;12.30;91.80
49236;DHT22;35067;48.134;8.378;2024-03-23T02:34:29;12.40;92.00
49236;DHT22;35067;48.134;8.378;2024-03-23T02:35:30;12.30;91.90
49236;DHT22;35067;48.134;8.378;2024-03-23T02:36:30;12.30;92.10
49236;DHT22;35067;48.134;8.378;2024-03-23T02:37:31;12.30;91.90
49236;DHT22;35067;48.134;8.378;2024-03-23T02:38:32;12.20;92.30
49236;DHT22;35067;48.134;8.378;2024-03-23T02:39:33;12.20;92.00
49236;DHT22;35067;48.134;8.378;2024-03-23T02:40:34;12.20;91.60
49236;DHT22;35067;48.134;8.378;2024-03-23T02:41:34;12.20;91.90
49236;DHT22;35067;48.134;8.378;2024-03-23T02:42:35;12.20;92.10
49236;DHT22;35067;48.134;8.378;2024-03-23T02:43:36;12.20;92.20
49236;DHT22;35067;48.134;8.378;2024-03-23T02:44:36;12.10;91.90
49236;DHT22;35067;48.134;8.378;2024-03-23T02:45:37;12.20;91.50
49236;DHT22;35067;48.134;8.378;2024-03-23T02:46:38;12.10;91.40
49236;DHT22;35067;48.134;8.378;2024-03-23T02:47:39;12.10;91.60
49236;DHT22;35067;48.134;8.378;2024-03-23T02:48:39;12.00;90.90
49236;DHT22;35067;48.134;8.378;2024-03-23T02:49:40;12.10;90.60
49236;DHT22;35067;48.134;8.378;2024-03-23T02:50:41;12.00;87.80
49236;DHT22;35067;48.134;8.378;2024-03-23T02:51:41;12.00;88.10
49236;DHT22;35067;48.134;8.378;2024-03-23T02:52:42;12.00;88.60
49236;DHT22;35067;48.134;8.378;2024-03-23T02:53:43;11.90;89.30
49236;DHT22;35067;48.134;8.378;2024-03-23T02:54:43;11.90;89.30
49236;DHT22;35067;48.134;8.378;2024-03-23T02:55:45;12.00;86.20
49236;DHT22;35067;48.134;8.378;2024-03-23T02:56:46;11.80;85.10
49236;DHT22;35067;48.134;8.378;2024-03-23T02:57:46;11.80;86.30
49236;DHT22;35067;48.134;8.378;2024-03-23T02:58:47;11.70;86.80
49236;DHT22;35067;48.134;8.378;2024-03-23T02:59:48;11.70;86.30
49236;DHT22;35067;48.134;8.378;2024-03-23T03:00:48;11.60;85.30
49236;DHT22;35067;48.134;8.378;2024-03-23T03:01:49;11.60;85.60
49236;DHT22;35067;48.134;8.378;2024-03-23T03:02:50;11.60;85.20
49236;DHT22;35067;48.134;8.378;2024-03-23T03:03:50;11.60;85.90
49236;DHT22;35067;48.134;8.378;2024-03-23T03:04:51;11.50;85.80
49236;DHT22;35067;48.134;8.378;2024-03-23T03:05:55;11.60;85.30
49236;DHT22;35067;48.134;8.378;2024-03-23T03:06:56;11.50;85.80
49236;DHT22;35067;48.134;8.378;2024-03-23T03:07:57;11.50;85.50
49236;DHT22;35067;48.134;8.378;2024-03-23T03:08:58;11.50;85.80
49236;DHT22;35067;48.134;8.378;2024-03-23T03:09:58;11.40;86.00
49236;DHT22;35067;48.134;8.378;2024-03-23T03:10:59;11.50;86.10
49236;DHT22;35067;48.134;8.378;2024-03-23T03:12:00;11.50;85.60
49236;DHT22;35067;48.134;8.378;2024-03-23T03:13:02;11.50;85.60
49236;DHT22;35067;48.134;8.378;2024-03-23T03:14:03;11.50;84.60
49236;DHT22;35067;48.134;8.378;2024-03-23T03:15:04;11.50;84.60
49236;DHT22;35067;48.134;8.378;2024-03-23T03:16:09;11.50;85.30
49236;DHT22;35067;48.134;8.378;2024-03-23T03:17:10;11.50;85.10
49236;DHT22;35067;48.134;8.378;2024-03-23T03:18:11;11.50;85.00
49236;DHT22;35067;48.134;8.378;2024-03-23T03:19:11;11.50;84.40
49236;DHT22;35067;48.134;8.378;2024-03-23T03:20:12;11.50;84.00
49236;DHT22;35067;48.134;8.378;2024-03-23T03:21:13;11.50;84.40
49236;DHT22;35067;48.134;8.378;2024-03-23T03:22:14;11.50;83.80
49236;DHT22;35067;48.134;8.378;2024-03-23T03:23:15;11.50;84.00
49236;DHT22;35067;48.134;8.378;2024-03-23T03:24:15;11.50;85.40
49236;DHT22;35067;48.134;8.378;2024-03-23T03:25:17;11.50;84.30
49236;DHT22;35067;48.134;8.378;2024-03-23T03:26:17;11.50;84.30
49236;DHT22;35067;48.134;8.378;2024-03-23T03:27:18;11.50;83.60
49236;DHT22;35067;48.134;8.378;2024-03-23T03:28:20;11.50;82.80
49236;DHT22;35067;48.134;8.378;2024-03-23T03:29:21;11.50;83.60
49236;DHT22;35067;48.134;8.378;2024-03-23T03:30:22;11.50;84.60
49236;DHT22;35067;48.134;8.378;2024-03-23T03:31:22;11.50;83.10
49236;DHT22;35067;48.134;8.378;2024-03-23T03:32:23;11.60;83.60
49236;DHT22;35067;48.134;8.378;2024-03-23T03:33:23;11.60;83.00
49236;DHT22;35067;48.134;8.378;2024-03-23T03:34:24;11.50;83.60
49236;DHT22;35067;48.134;8.378;2024-03-23T03:35:25;11.60;82.90
49236;DHT22;35067;48.134;8.378;2024-03-23T03:36:26;11.60;82.60
49236;DHT22;35067;48.134;8.378;2024-03-23T03:37:26;11.60;82.60
49236;DHT22;35067;48.134;8.378;2024-03-23T03:38:27;11.60;82.50
49236;DHT22;35067;48.134;8.378;2024-03-23T03:39:27;11.60;83.30
49236;DHT22;35067;48.134;8.378;2024-03-23T03:40:28;11.60;83.40
49236;DHT22;35067;48.134;8.378;2024-03-23T03:41:29;11.60;83.60
49236;DHT22;35067;48.134;8.378;2024-03-23T03:42:31;11.60;83.50
49236;DHT22;35067;48.134;8.378;2024-03-23T03:43:32;11.70;83.30
49236;DHT22;35067;48.134;8.378;2024-03-23T03:44:33;11.60;83.70
49236;DHT22;35067;48.134;8.378;2024-03-23T03:45:33;11.60;83.90
49236;DHT22;35067;48.134;8.378;2024-03-23T03:46:34;11.60;83.90
49236;DHT22;35067;48.134;8.378;2024-03-23T03:47:34;11.60;84.50
49236;DHT22;35067;48.134;8.378;2024-03-23T03:48:35;11.70;83.80
49236;DHT22;35067;48.134;8.378;2024-03-23T03:49:36;11.70;83.00
49236;DHT22;35067;48.134;8.378;2024-03-23T03:50:36;11.70;83.40
49236;DHT22;35067;48.134;8.378;2024-03-23T03:51:37;11.70;83.20
49236;DHT22;35067;48.134;8.378;2024-03-23T03:52:38;11.60;84.00
49236;DHT22;35067;48.134;8.378;2024-03-23T03:53:38;11.70;83.80
49236;DHT22;35067;48.134;8.378;2024-03-23T03:54:39;11.70;83.60
49236;DHT22;35067;48.134;8.378;2024-03-23T03:55:40;11.60;84.20
49236;DHT22;35067;48.134;8.378;2024-03-23T03:56:40;11.50;84.70
49236;DHT22;35067;48.134;8.378;2024-03-23T03:57:41;11.50;85.30
49236;DHT22;35067;48.134;8.378;2024-03-23T03:58:42;11.50;85.80
49236;DHT22;35067;48.134;8.378;2024-03-23T03:59:44;11.50;87.00
49236;DHT22;35067;48.134;8.378;2024-03-23T04:00:44;11.50;85.90
49236;DHT22;35067;48.134;8.378;2024-03-23T04:01:45;11.50;85.60
49236;DHT22;35067;48.134;8.378;2024-03-23T04:02:45;11.50;85.70
49236;DHT22;35067;48.134;8.378;2024-03-23T04:03:47;11.50;86.60
49236;DHT22;35067;48.134;8.378;2024-03-23T04:04:47;11.50;86.40
49236;DHT22;35067;48.134;8.378;2024-03-23T04:05:54;11.60;86.40
49236;DHT22;35067;48.134;8.378;2024-03-23T04:07:02;11.60;87.00
49236;DHT22;35067;48.134;8.378;2024-03-23T04:08:03;11.60;88.90
49236;DHT22;35067;48.134;8.378;2024-03-23T04:09:04;11.50;89.10
49236;DHT22;35067;48.134;8.378;2024-03-23T04:10:07;11.50;90.00
49236;DHT22;35067;48.134;8.378;2024-03-23T04:11:08;11.50;90.50
49236;DHT22;35067;48.134;8.378;2024-03-23T04:12:09;11.30;92.20
49236;DHT22;35067;48.134;8.378;2024-03-23T04:13:09;11.30;91.90
49236;DHT22;35067;48.134;8.378;2024-03-23T04:14:10;11.30;91.90
49236;DHT22;35067;48.134;8.378;2024-03-23T04:15:11;11.30;91.80
49236;DHT22;35067;48.134;8.378;2024-03-23T04:16:12;11.30;92.10
49236;DHT22;35067;48.134;8.378;2024-03-23T04:17:12;11.30;92.70
49236;DHT22;35067;48.134;8.378;2024-03-23T04:18:13;11.20;92.40
49236;DHT22;35067;48.134;8.378;2024-03-23T04:19:14;11.20;92.40
49236;DHT22;35067;48.134;8.378;2024-03-23T04:20:15;11.20;92.50
49236;DHT22;35067;48.134;8.378;2024-03-23T04:21:17;11.20;92.60
49236;DHT22;35067;48.134;8.378;2024-03-23T04:22:18;11.10;93.20
49236;DHT22;35067;48.134;8.378;2024-03-23T04:23:18;11.00;93.60
49236;DHT22;35067;48.134;8.378;2024-03-23T04:24:19;11.00;94.10
49236;DHT22;35067;48.134;8.378;2024-03-23T04:25:21;11.00;94.50
49236;DHT22;35067;48.134;8.378;2024-03-23T04:26:22;10.90;94.90
49236;DHT22;35067;48.134;8.378;2024-03-23T04:27:25;11.00;95.20
49236;DHT22;35067;48.134;8.378;2024-03-23T04:28:26;10.90;95.30
49236;DHT22;35067;48.134;8.378;2024-03-23T04:29:26;10.80;95.80
49236;DHT22;35067;48.134;8.378;2024-03-23T04:30:27;10.80;95.90
49236;DHT22;35067;48.134;8.378;2024-03-23T04:31:29;10.70;96.30
49236;DHT22;35067;48.134;8.378;2024-03-23T04:32:32;10.80;96.40
49236;DHT22;35067;48.134;8.378;2024-03-23T04:33:32;10.80;96.50
49236;DHT22;35067;48.134;8.378;2024-03-23T04:34:33;10.70;96.70
49236;DHT22;35067;48.134;8.378;2024-03-23T04:35:34;10.80;96.90
49236;DHT22;35067;48.134;8.378;2024-03-23T04:36:34;10.80;97.00
49236;DHT22;35067;48.134;8.378;2024-03-23T04:37:38;10.80;97.10
49236;DHT22;35067;48.134;8.378;2024-03-23T04:38:41;10.80;97.50
49236;DHT22;35067;48.134;8.378;2024-03-23T04:39:41;10.80;96.80
49236;DHT22;35067;48.134;8.378;2024-03-23T04:40:42;10.80;96.90
49236;DHT22;35067;48.134;8.378;2024-03-23T04:41:43;10.70;97.10
49236;DHT22;35067;48.134;8.378;2024-03-23T04:42:44;10.70;97.60
49236;DHT22;35067;48.134;8.378;2024-03-23T04:43:45;10.80;97.10
49236;DHT22;35067;48.134;8.378;2024-03-23T04:44:45;10.70;97.50
49236;DHT22;35067;48.134;8.378;2024-03-23T04:45:46;10.70;97.50
49236;DHT22;35067;48.134;8.378;2024-03-23T04:46:47;10.70;97.70
49236;DHT22;35067;48.134;8.378;2024-03-23T04:47:47;10.60;98.20
49236;DHT22;35067;48.134;8.378;2024-03-23T04:48:48;10.60;98.20
49236;DHT22;35067;48.134;8.378;2024-03-23T04:49:49;10.60;98.40
49236;DHT22;35067;48.134;8.378;2024-03-23T04:50:54;10.70;98.20
49236;DHT22;35067;48.134;8.378;2024-03-23T04:51:55;10.70;98.70
49236;DHT22;35067;48.134;8.378;2024-03-23T04:52:55;10.60;98.80
49236;DHT22;35067;48.134;8.378;2024-03-23T04:53:56;10.70;99.20
49236;DHT22;35067;48.134;8.378;2024-03-23T04:54:57;10.60;99.20
49236;DHT22;35067;48.134;8.378;2024-03-23T04:55:58;10.60;99.70
49236;DHT22;35067;48.134;8.378;2024-03-23T04:56:59;10.50;99.50
49236;DHT22;35067;48.134;8.378;2024-03-23T04:58:00;10.50;99.40
49236;DHT22;35067;48.134;8.378;2024-03-23T04:59:01;10.50;99.60
49236;DHT22;35067;48.134;8.378;2024-03-23T05:00:02;10.50;99.40
49236;DHT22;35067;48.134;8.378;2024-03-23T05:01:05;10.60;99.40
49236;DHT22;35067;48.134;8.378;2024-03-23T05:02:06;10.60;99.20
49236;DHT22;35067;48.134;8.378;2024-03-23T05:03:07;10.50;98.80
49236;DHT22;35067;48.134;8.378;2024-03-23T05:04:08;10.50;99.00
49236;DHT22;35067;48.134;8.378;2024-03-23T05:05:09;10.50;98.70
49236;DHT22;35067;48.134;8.378;2024-03-23T05:06:10;10.60;98.60
49236;DHT22;35067;48.134;8.378;2024-03-23T05:07:10;10.60;98.30
49236;DHT22;35067;48.134;8.378;2024-03-23T05:08:11;10.60;98.40
49236;DHT22;35067;48.134;8.378;2024-03-23T05:09:13;10.70;98.40
49236;DHT22;35067;48.134;8.378;2024-03-23T05:10:13;10.70;98.10
49236;DHT22;35067;48.134;8.378;2024-03-23T05:11:14;10.70;98.00
49236;DHT22;35067;48.134;8.378;2024-03-23T05:12:15;10.80;97.90
49236;DHT22;35067;48.134;8.378;2024-03-23T05:13:16;10.80;97.60
49236;DHT22;35067;48.134;8.378;2024-03-23T05:14:17;10.80;97.50
49236;DHT22;35067;48.134;8.378;2024-03-23T05:15:17;10.80;97.40
49236;DHT22;35067;48.134;8.378;2024-03-23T05:16:18;10.80;96.40
49236;DHT22;35067;48.134;8.378;2024-03-23T05:17:19;10.80;96.10
49236;DHT22;35067;48.134;8.378;2024-03-23T05:18:20;10.70;96.60
49236;DHT22;35067;48.134;8.378;2024-03-23T05:19:21;10.60;97.30
49236;DHT22;35067;48.134;8.378;2024-03-23T05:20:22;10.50;97.80
49236;DHT22;35067;48.134;8.378;2024-03-23T05:21:23;10.20;99.20
49236;DHT22;35067;48.134;8.378;2024-03-23T05:22:24;10.00;99.90
49236;DHT22;35067;48.134;8.378;2024-03-23T05:23:25;9.80;99.90
49236;DHT22;35067;48.134;8.378;2024-03-23T05:24:26;9.70;99.90
49236;DHT22;35067;48.134;8.378;2024-03-23T05:25:26;9.50;99.90
49236;DHT22;35067;48.134;8.378;2024-03-23T05:26:27;9.40;99.90
49236;DHT22;35067;48.134;8.378;2024-03-23T05:27:28;9.30;99.90
49236;DHT22;35067;48.134;8.378;2024-03-23T05:28:29;9.10;99.90
49236;DHT22;35067;48.134;8.378;2024-03-23T05:29:29;9.00;99.90
49236;DHT22;35067;48.134;8.378;2024-03-23T05:30:30;8.90;99.90
49236;DHT22;35067;48.134;8.378;2024-03-23T05:31:31;8.80;99.90
49236;DHT22;35067;48.134;8.378;2024-03-23T05:32:32;8.70;99.90
49236;DHT22;35067;48.134;8.378;2024-03-23T05:33:33;8.70;99.90
49236;DHT22;35067;48.134;8.378;2024-03-23T05:34:34;8.60;99.90
49236;DHT22;35067;48.134;8.378;2024-03-23T05:35:34;8.50;99.90
49236;DHT22;35067;48.134;8.378;2024-03-23T05:36:35;8.50;99.90
49236;DHT22;35067;48.134;8.378;2024-03-23T05:37:36;8.60;99.90
49236;DHT22;35067;48.134;8.378;2024-03-23T05:38:37;8.50;99.90
49236;DHT22;35067;48.134;8.378;2024-03-23T05:39:38;8.40;99.90
49236;DHT22;35067;48.134;8.378;2024-03-23T05:40:39;8.30;99.90
49236;DHT22;35067;48.134;8.378;2024-03-23T05:41:40;8.20;99.90
49236;DHT22;35067;48.134;8.378;2024-03-23T05:42:41;8.20;99.90
49236;DHT22;35067;48.134;8.378;2024-03-23T05:43:42;8.10;99.90
49236;DHT22;35067;48.134;8.378;2024-03-23T05:44:46;8.20;99.90
49236;DHT22;35067;48.134;8.378;2024-03-23T05:45:56;8.10;99.90
49236;DHT22;35067;48.134;8.378;2024-03-23T05:46:59;8.10;99.90
49236;DHT22;35067;48.134;8.378;2024-03-23T05:48:00;8.10;99.90
49236;DHT22;35067;48.134;8.378;2024-03-23T05:49:02;8.10;99.90
49236;DHT22;35067;48.134;8.378;2024-03-23T05:50:03;8.00;99.90
49236;DHT22;35067;48.134;8.378;2024-03-23T05:51:04;8.00;99.90
49236;DHT22;35067;48.134;8.378;2024-03-23T05:52:05;7.90;99.90
49236;DHT22;35067;48.134;8.378;2024-03-23T05:53:05;7.90;99.90
49236;DHT22;35067;48.134;8.378;2024-03-23T05:54:06;7.80;99.90
49236;DHT22;35067;48.134;8.378;2024-03-23T05:55:07;7.70;99.90
49236;DHT22;35067;48.134;8.378;2024-03-23T05:56:08;7.70;99.90
49236;DHT22;35067;48.134;8.378;2024-03-23T05:57:09;7.60;99.90
49236;DHT22;35067;48.134;8.378;2024-03-23T05:58:10;7.60;99.90
49236;DHT22;35067;48.134;8.378;2024-03-23T05:59:11;7.50;99.90
49236;DHT22;35067;48.134;8.378;2024-03-23T06:00:12;7.50;99.90
49236;DHT22;35067;48.134;8.378;2024-03-23T06:01:18;7.40;99.90
49236;DHT22;35067;48.134;8.378;2024-03-23T06:02:19;7.50;99.90
49236;DHT22;35067;48.134;8.378;2024-03-23T06:03:20;7.50;99.90
49236;DHT22;35067;48.134;8.378;2024-03-23T06:04:21;7.50;99.90
49236;DHT22;35067;48.134;8.378;2024-03-23T06:05:23;7.50;99.90
49236;DHT22;35067;48.134;8.378;2024-03-23T06:06:24;7.40;99.90
49236;DHT22;35067;48.134;8.378;2024-03-23T06:07:25;7.40;99.90
49236;DHT22;35067;48.134;8.378;2024-03-23T06:08:25;7.40;99.90
49236;DHT22;35067;48.134;8.378;2024-03-23T06:09:26;7.40;99.90
49236;DHT22;35067;48.134;8.378;2024-03-23T06:10:27;7.40;99.90
49236;DHT22;35067;48.134;8.378;2024-03-23T06:11:28;7.30;99.90
49236;DHT22;35067;48.134;8.378;2024-03-23T06:12:28;7.20;99.90
49236;DHT22;35067;48.134;8.378;2024-03-23T06:13:29;7.20;99.90
49236;DHT22;35067;48.134;8.378;2024-03-23T06:14:30;7.10;99.90
49236;DHT22;35067;48.134;8.378;2024-03-23T06:15:30;7.10;99.90
49236;DHT22;35067;48.134;8.378;2024-03-23T06:16:32;7.00;99.90
49236;DHT22;35067;48.134;8.378;2024-03-23T06:17:33;7.00;99.90
49236;DHT22;35067;48.134;8.378;2024-03-23T06:18:34;7.00;99.90
49236;DHT22;35067;48.134;8.378;2024-03-23T06:19:34;7.00;99.90
49236;DHT22;35067;48.134;8.378;2024-03-23T06:20:35;7.00;99.90
49236;DHT22;35067;48.134;8.378;2024-03-23T06:21:36;7.10;99.90
49236;DHT22;35067;48.134;8.378;2024-03-23T06:22:37;7.00;99.90
49236;DHT22;35067;48.134;8.378;2024-03-23T06:23:37;7.00;99.90
49236;DHT22;35067;48.134;8.378;2024-03-23T06:24:38;6.90;99.90
49236;DHT22;35067;48.134;8.378;2024-03-23T06:25:39;6.90;99.90
49236;DHT22;35067;48.134;8.378;2024-03-23T06:26:39;6.80;99.90
49236;DHT22;35067;48.134;8.378;2024-03-23T06:27:40;6.80;99.90
49236;DHT22;35067;48.134;8.378;2024-03-23T06:28:41;6.80;99.90
49236;DHT22;35067;48.134;8.378;2024-03-23T06:29:42;6.80;99.90
49236;DHT22;35067;48.134;8.378;2024-03-23T06:30:42;6.80;99.90
49236;DHT22;35067;48.134;8.378;2024-03-23T06:31:43;6.70;99.90
49236;DHT22;35067;48.134;8.378;2024-03-23T06:32:44;6.70;99.90
49236;DHT22;35067;48.134;8.378;2024-03-23T06:33:44;6.80;99.90
49236;DHT22;35067;48.134;8.378;2024-03-23T06:34:45;6.80;99.90
49236;DHT22;35067;48.134;8.378;2024-03-23T06:35:50;6.80;99.90
49236;DHT22;35067;48.134;8.378;2024-03-23T06:36:52;6.80;99.90
49236;DHT22;35067;48.134;8.378;2024-03-23T06:37:53;6.80;99.90
49236;DHT22;35067;48.134;8.378;2024-03-23T06:38:53;6.70;99.90
49236;DHT22;35067;48.134;8.378;2024-03-23T06:39:54;6.50;99.90
49236;DHT22;35067;48.134;8.378;2024-03-23T06:40:55;6.40;99.90
49236;DHT22;35067;48.134;8.378;2024-03-23T06:41:55;6.30;99.90
49236;DHT22;35067;48.134;8.378;2024-03-23T06:42:57;6.20;99.90
49236;DHT22;35067;48.134;8.378;2024-03-23T06:43:57;6.20;99.90
49236;DHT22;35067;48.134;8.378;2024-03-23T06:44:58;6.20;99.90
49236;DHT22;35067;48.134;8.378;2024-03-23T06:45:59;6.10;99.90
49236;DHT22;35067;48.134;8.378;2024-03-23T06:47:00;6.10;99.90
49236;DHT22;35067;48.134;8.378;2024-03-23T06:48:00;6.10;99.90
49236;DHT22;35067;48.134;8.378;2024-03-23T06:49:01;6.10;99.90
49236;DHT22;35067;48.134;8.378;2024-03-23T06:50:03;6.00;99.90
49236;DHT22;35067;48.134;8.378;2024-03-23T06:51:04;6.00;99.90
49236;DHT22;35067;48.134;8.378;2024-03-23T06:52:05;5.90;99.90
49236;DHT22;35067;48.134;8.378;2024-03-23T06:53:06;6.00;99.90
49236;DHT22;35067;48.134;8.378;2024-03-23T06:54:06;6.00;99.90
49236;DHT22;35067;48.134;8.378;2024-03-23T06:55:07;6.00;99.90
49236;DHT22;35067;48.134;8.378;2024-03-23T06:56:08;6.00;99.90
49236;DHT22;35067;48.134;8.378;2024-03-23T06:57:09;6.00;99.90
49236;DHT22;35067;48.134;8.378;2024-03-23T06:58:10;6.00;99.90
49236;DHT22;35067;48.134;8.378;2024-03-23T06:59:10;6.00;99.90
49236;DHT22;35067;48.134;8.378;2024-03-23T07:00:12;5.90;99.90
49236;DHT22;35067;48.134;8.378;2024-03-23T07:01:14;5.90;99.90
49236;DHT22;35067;48.134;8.378;2024-03-23T07:02:14;6.00;99.90
49236;DHT22;35067;48.134;8.378;2024-03-23T07:03:16;6.00;99.90
49236;DHT22;35067;48.134;8.378;2024-03-23T07:04:17;5.90;99.90
49236;DHT22;35067;48.134;8.378;2024-03-23T07:05:19;5.90;99.90
49236;DHT22;35067;48.134;8.378;2024-03-23T07:06:19;5.90;99.90
49236;DHT22;35067;48.134;8.378;2024-03-23T07:07:21;5.80;99.90
49236;DHT22;35067;48.134;8.378;2024-03-23T07:08:22;5.80;99.90
49236;DHT22;35067;48.134;8.378;2024-03-23T07:09:23;5.80;99.90
49236;DHT22;35067;48.134;8.378;2024-03-23T07:10:26;5.70;99.90
49236;DHT22;35067;48.134;8.378;2024-03-23T07:11:27;5.70;99.90
49236;DHT22;35067;48.134;8.378;2024-03-23T07:12:28;5.60;99.90
49236;DHT22;35067;48.134;8.378;2024-03-23T07:13:29;5.60;99.90
49236;DHT22;35067;48.134;8.378;2024-03-23T07:14:29;5.60;99.90
49236;DHT22;35067;48.134;8.378;2024-03-23T07:15:30;5.60;99.90
49236;DHT22;35067;48.134;8.378;2024-03-23T07:16:31;5.60;99.90
49236;DHT22;35067;48.134;8.378;2024-03-23T07:17:31;5.60;99.90
49236;DHT22;35067;48.134;8.378;2024-03-23T07:18:33;5.70;99.90
49236;DHT22;35067;48.134;8.378;2024-03-23T07:19:34;5.70;99.90
49236;DHT22;35067;48.134;8.378;2024-03-23T07:20:35;5.70;99.90